Terminal Aerodrome Forecast
Issued by NWS

Home | Current Version | Previous Version | Text Only | Print | Product List | Glossary On
Versions: 1 2 3 4 5 6 7 8 9 10 11 12 13 14 15 16 17 18 19 20 21 22 23 24 25 26 27 28 29
000
FTUS41 KPHI 051905 AAA
TAFPNE
TAF AMD
KPNE 051905Z 0519/0618 05008KT P6SM OVC025
      TEMPO 0521/0601 OVC035
     FM060500 04008KT P6SM OVC018
     FM060800 03010KT 4SM -RA BR OVC012
     FM061000 03010G18KT 2SM RA BR OVC006
     FM061600 06008KT 4SM -DZ BR OVC008=

USA.gov is the U.S. government's official web portal to all federal, state and local government web resources and services.